createdAt,value
2022-12-23T00:00:33.901Z,17.85
2022-12-23T00:02:59.803Z,15.15
2022-12-23T00:05:25.694Z,13.57
2022-12-23T00:07:51.441Z,14.60
2022-12-23T00:10:17.270Z,13.95
2022-12-23T00:13:01.698Z,11.98
2022-12-23T00:15:27.671Z,13.45
2022-12-23T00:17:53.391Z,15.43
2022-12-23T00:20:19.255Z,14.25
2022-12-23T00:23:03.911Z,15.05
2022-12-23T00:25:44.088Z,15.60
2022-12-23T00:28:11.019Z,12.82
2022-12-23T00:30:37.971Z,15.38
2022-12-23T00:33:04.186Z,18.90
2022-12-23T00:35:31.502Z,15.82
2022-12-23T00:37:57.220Z,18.38
2022-12-23T00:40:41.524Z,17.17
2022-12-23T00:43:07.268Z,22.02
2022-12-23T00:45:33.057Z,14.75
2022-12-23T00:48:17.492Z,18.95
2022-12-23T00:50:43.218Z,26.55
2022-12-23T00:53:08.933Z,20.35
2022-12-23T00:55:34.709Z,19.15
2022-12-23T00:58:00.445Z,20.50
2022-12-23T01:00:44.863Z,20.05
2022-12-23T01:03:33.151Z,19.02
2022-12-23T01:05:59.552Z,20.92
2022-12-23T01:08:25.854Z,25.38
2022-12-23T01:10:51.594Z,21.88
2022-12-23T01:13:17.305Z,22.20
2022-12-23T01:15:43.410Z,21.45
2022-12-23T01:18:09.181Z,19.92
2022-12-23T01:20:36.992Z,22.40
2022-12-23T01:23:02.708Z,19.33
2022-12-23T01:25:29.422Z,21.85
2022-12-23T01:27:55.151Z,20.40
2022-12-23T01:30:21.395Z,23.65
2022-12-23T01:32:47.138Z,22.67
2022-12-23T01:35:12.932Z,24.10
2022-12-23T01:37:39.205Z,21.33
2022-12-23T01:40:05.551Z,22.70
2022-12-23T01:42:43.454Z,19.02
2022-12-23T01:45:28.146Z,28.65
2022-12-23T01:47:59.035Z,29.02
2022-12-23T01:53:00.471Z,24.05
2022-12-23T01:55:32.341Z,23.95
2022-12-23T01:58:00.719Z,29.77
2022-12-23T02:00:45.045Z,23.85
2022-12-23T02:03:29.273Z,26.38
2022-12-23T02:06:15.527Z,28.92
2022-12-23T02:09:07.716Z,29.77
2022-12-23T02:11:43.365Z,29.00
2022-12-23T02:14:46.859Z,29.83
2022-12-23T02:17:32.865Z,30.42
2022-12-23T02:20:04.652Z,27.27
2022-12-23T02:22:37.327Z,29.15
2022-12-23T02:25:03.066Z,29.33
2022-12-23T02:27:31.217Z,31.65
2022-12-23T02:30:15.756Z,28.27
2022-12-23T02:32:44.357Z,28.25
2022-12-23T02:35:16.560Z,28.85
2022-12-23T02:38:04.439Z,27.25
2022-12-23T02:40:35.078Z,33.83
2022-12-23T02:43:13.033Z,28.23
2022-12-23T02:45:41.303Z,31.27
2022-12-23T02:48:09.972Z,28.75
2022-12-23T02:50:37.007Z,27.00
2022-12-23T02:53:16.908Z,33.60
2022-12-23T02:55:44.258Z,30.03
2022-12-23T02:58:12.267Z,28.15
2022-12-23T03:00:38.874Z,29.30
2022-12-23T03:03:04.706Z,28.58
2022-12-23T03:05:38.877Z,30.02
2022-12-23T03:08:07.202Z,26.70
2022-12-23T03:10:38.941Z,29.70
2022-12-23T03:13:28.607Z,25.85
2022-12-23T03:15:54.357Z,30.25
2022-12-23T03:18:29.237Z,32.22
2022-12-23T03:21:03.852Z,33.63
2022-12-23T03:23:31.582Z,42.13
2022-12-23T03:26:00.634Z,33.05
2022-12-23T03:28:44.797Z,35.72
2022-12-23T03:31:12.571Z,30.75
2022-12-23T03:33:42.961Z,30.02
2022-12-23T03:36:14.631Z,36.00
2022-12-23T03:38:41.295Z,27.10
2022-12-23T03:41:16.666Z,31.15
2022-12-23T03:43:50.374Z,33.92
2022-12-23T03:46:19.013Z,31.75
2022-12-23T03:48:47.986Z,29.95
2022-12-23T03:51:18.922Z,33.40
2022-12-23T03:53:50.055Z,37.88
2022-12-23T03:56:21.066Z,34.42
2022-12-23T03:58:50.455Z,27.75
2022-12-23T04:01:29.638Z,29.00
2022-12-23T04:04:14.324Z,37.60
2022-12-23T04:06:43.240Z,42.20
2022-12-23T04:09:09.524Z,32.30
2022-12-23T04:11:35.861Z,28.92
2022-12-23T04:14:01.770Z,25.55
2022-12-23T04:16:28.606Z,30.50
2022-12-23T04:18:54.436Z,29.23
2022-12-23T04:21:20.206Z,34.00
2022-12-23T04:23:45.926Z,33.33
2022-12-23T04:26:11.696Z,34.38
2022-12-23T04:28:37.445Z,26.63
2022-12-23T04:31:03.345Z,32.53
2022-12-23T04:33:29.140Z,31.98
2022-12-23T04:35:54.878Z,25.90
2022-12-23T04:38:20.643Z,31.65
2022-12-23T04:40:46.771Z,26.02
2022-12-23T04:43:12.610Z,27.02
2022-12-23T04:45:38.402Z,25.13
2022-12-23T04:48:04.157Z,25.17
2022-12-23T04:50:29.898Z,21.95
2022-12-23T04:52:55.625Z,20.63
2022-12-23T04:55:21.427Z,28.70
2022-12-23T04:57:47.192Z,23.77
2022-12-23T05:00:13.177Z,20.98
2022-12-23T05:02:39.005Z,18.60
2022-12-23T05:05:04.996Z,22.92
2022-12-23T05:07:30.838Z,22.23
2022-12-23T05:10:00.945Z,17.58
2022-12-23T05:12:29.565Z,21.13
2022-12-23T05:14:55.333Z,18.70
2022-12-23T05:17:21.083Z,20.58
2022-12-23T05:19:46.889Z,17.67
2022-12-23T05:22:12.680Z,20.40
2022-12-23T05:24:38.454Z,21.23
2022-12-23T05:27:04.200Z,17.77
2022-12-23T05:29:29.964Z,19.23
2022-12-23T05:31:55.766Z,21.90
2022-12-23T05:34:21.650Z,21.42
2022-12-23T05:36:47.595Z,18.65
2022-12-23T05:39:13.509Z,16.88
2022-12-23T05:41:39.265Z,21.30
2022-12-23T05:44:05.101Z,20.95
2022-12-23T05:46:30.882Z,19.65
2022-12-23T05:48:56.689Z,22.65
2022-12-23T05:51:22.629Z,19.58
2022-12-23T05:53:48.420Z,21.05
2022-12-23T05:56:14.164Z,19.27
2022-12-23T05:58:39.908Z,19.30
2022-12-23T06:01:07.152Z,23.60
2022-12-23T06:03:33.122Z,21.45
2022-12-23T06:05:59.040Z,24.33
2022-12-23T06:08:25.244Z,22.67
2022-12-23T06:10:51.021Z,26.17
2022-12-23T06:13:16.770Z,18.00
2022-12-23T06:15:42.515Z,17.58
2022-12-23T06:18:08.258Z,17.17
2022-12-23T06:20:33.977Z,21.15
2022-12-23T06:22:59.791Z,16.60
2022-12-23T06:25:25.561Z,16.02
2022-12-23T06:27:51.338Z,18.15
2022-12-23T06:30:17.102Z,18.33
2022-12-23T06:32:42.858Z,21.30
2022-12-23T06:35:08.971Z,20.90
2022-12-23T06:37:34.841Z,24.58
2022-12-23T06:40:00.558Z,18.70
2022-12-23T06:42:26.278Z,14.93
2022-12-23T06:44:52.009Z,18.60
2022-12-23T06:47:17.818Z,21.08
2022-12-23T06:49:43.585Z,20.67
2022-12-23T06:52:09.514Z,18.67
2022-12-23T06:54:35.243Z,17.38
2022-12-23T06:57:01.017Z,21.67
2022-12-23T06:59:28.020Z,16.20
2022-12-23T07:23:28.447Z,17.15
2022-12-23T07:25:59.920Z,21.90
2022-12-23T07:28:39.582Z,22.45
2022-12-23T07:31:09.468Z,23.63
2022-12-23T07:36:24.721Z,25.98
2022-12-23T07:38:53.321Z,25.40
2022-12-23T07:46:41.715Z,29.20
2022-12-23T07:49:34.784Z,27.42
2022-12-23T08:06:00.827Z,31.52
2022-12-23T08:11:10.200Z,28.15
2022-12-23T08:30:30.632Z,31.98
2022-12-23T08:46:33.354Z,32.42
2022-12-23T09:00:32.479Z,25.77
2022-12-23T09:08:28.077Z,23.48
2022-12-23T09:19:04.429Z,21.35
2022-12-23T12:13:50.756Z,16.63
2022-12-23T13:40:15.460Z,17.92
2022-12-23T13:42:54.628Z,18.38
2022-12-23T14:06:42.285Z,15.02
2022-12-23T14:09:13.352Z,15.40
2022-12-23T14:11:41.894Z,13.30
2022-12-23T14:14:16.927Z,15.55
2022-12-23T14:19:42.526Z,9.65
2022-12-23T14:47:31.575Z,10.10
2022-12-23T14:55:51.562Z,9.55
2022-12-23T15:01:08.868Z,10.05
2022-12-23T15:03:42.605Z,9.32
2022-12-23T15:06:14.188Z,13.82
2022-12-23T15:11:17.641Z,14.35
2022-12-23T15:13:48.415Z,10.55
2022-12-23T15:19:17.933Z,13.38
2022-12-23T15:21:49.155Z,14.00
2022-12-23T15:24:24.809Z,14.85
2022-12-23T15:27:24.668Z,17.00
2022-12-23T15:29:45.625Z,15.68
2022-12-23T16:01:25.997Z,18.85
2022-12-23T16:03:59.273Z,16.23
2022-12-23T16:06:34.820Z,18.27
2022-12-23T16:14:40.672Z,20.38
2022-12-23T16:17:12.635Z,19.65
2022-12-23T16:19:48.870Z,21.25
2022-12-23T16:25:37.151Z,21.80
2022-12-23T17:05:52.608Z,17.20
2022-12-23T17:08:24.574Z,16.95
2022-12-23T17:10:54.197Z,16.45
2022-12-23T17:16:11.328Z,21.35
2022-12-23T19:31:31.522Z,34.25
2022-12-23T19:33:58.336Z,28.95
2022-12-23T19:36:26.254Z,33.40
2022-12-23T19:38:52.781Z,34.40
2022-12-23T19:41:22.019Z,29.90
2022-12-23T19:43:58.144Z,26.65
2022-12-23T19:46:26.712Z,31.50
2022-12-23T19:48:53.668Z,33.17
2022-12-23T19:51:23.434Z,36.70
2022-12-23T19:53:52.019Z,38.55
2022-12-23T19:56:22.860Z,35.42
2022-12-23T20:01:21.948Z,32.00
2022-12-23T20:03:49.932Z,30.20
2022-12-23T20:06:24.670Z,30.63
2022-12-23T20:08:56.354Z,31.90
2022-12-23T20:11:27.432Z,29.65
2022-12-23T20:13:54.637Z,31.73
2022-12-23T20:16:28.378Z,30.15
2022-12-23T20:18:55.594Z,31.25
2022-12-23T20:21:22.445Z,25.23
2022-12-23T20:24:06.225Z,30.08
2022-12-23T20:26:33.453Z,21.90
2022-12-23T20:29:00.112Z,26.48
2022-12-23T20:31:27.736Z,24.00
2022-12-23T20:33:55.590Z,28.02
2022-12-23T20:36:23.578Z,28.48
2022-12-23T20:38:52.177Z,24.25
2022-12-23T20:41:20.103Z,22.90
2022-12-23T20:44:02.812Z,25.10
2022-12-23T20:46:35.923Z,23.60
2022-12-23T20:49:02.255Z,23.65
2022-12-23T20:51:28.351Z,26.20
2022-12-23T20:53:56.062Z,31.40
2022-12-23T20:56:28.873Z,27.17
2022-12-23T20:58:55.432Z,22.40
2022-12-23T21:01:22.901Z,29.67
2022-12-23T21:03:53.101Z,26.75
2022-12-23T21:06:19.768Z,27.98
2022-12-23T21:08:48.804Z,29.60
2022-12-23T21:11:16.999Z,22.70
2022-12-23T21:13:48.652Z,30.67
2022-12-23T21:16:15.885Z,32.13
2022-12-23T21:18:50.526Z,23.85
2022-12-23T21:21:16.803Z,33.03
2022-12-23T21:24:05.294Z,27.42
2022-12-23T21:26:34.145Z,34.40
2022-12-23T21:29:01.541Z,30.58
2022-12-23T21:34:15.743Z,30.08
2022-12-23T21:36:45.632Z,28.42
2022-12-23T21:41:56.456Z,32.75
2022-12-23T21:44:23.053Z,30.63
2022-12-23T21:46:50.870Z,29.52
2022-12-23T21:49:23.967Z,33.10
2022-12-23T21:51:50.237Z,33.33
2022-12-23T21:54:32.215Z,32.72
2022-12-23T22:02:09.120Z,29.80
2022-12-23T22:04:39.938Z,26.08
2022-12-23T22:09:35.965Z,27.65
2022-12-23T22:12:05.695Z,26.98
2022-12-23T22:14:33.664Z,27.25
2022-12-23T22:17:02.214Z,22.45
2022-12-23T22:19:28.201Z,28.20
2022-12-23T22:21:55.250Z,30.42
2022-12-23T22:24:22.234Z,26.15
2022-12-23T22:26:53.585Z,24.63
2022-12-23T22:29:20.991Z,33.92
2022-12-23T22:31:49.268Z,28.23
2022-12-23T22:34:16.759Z,18.90
2022-12-23T22:36:43.299Z,26.38
2022-12-23T22:39:12.991Z,23.45
2022-12-23T22:41:44.475Z,23.50
2022-12-23T22:44:12.781Z,22.15
2022-12-23T22:49:19.233Z,20.38
2022-12-23T22:51:45.431Z,18.88
2022-12-23T22:54:11.198Z,24.27
2022-12-23T22:56:37.061Z,19.50
2022-12-23T22:59:04.123Z,19.88
2022-12-23T23:01:31.418Z,18.25
2022-12-23T23:03:58.497Z,24.40
2022-12-23T23:06:25.103Z,18.40
2022-12-23T23:08:50.845Z,20.13
2022-12-23T23:11:16.783Z,19.02
2022-12-23T23:13:42.514Z,18.23
2022-12-23T23:18:55.997Z,15.57
2022-12-23T23:21:21.851Z,16.30
2022-12-23T23:23:49.166Z,15.73
2022-12-23T23:26:15.173Z,16.85
2022-12-23T23:28:41.315Z,16.92
2022-12-23T23:33:53.662Z,16.40
2022-12-23T23:36:19.428Z,13.05
2022-12-23T23:38:45.189Z,14.88
2022-12-23T23:41:10.929Z,17.98
2022-12-23T23:43:36.645Z,12.38
2022-12-23T23:46:02.548Z,16.63
2022-12-23T23:48:28.322Z,21.88
2022-12-23T23:51:02.473Z,13.93
2022-12-23T23:53:28.190Z,15.25
2022-12-23T23:55:59.439Z,19.77
2022-12-23T23:58:25.151Z,18.27
